sensor_id;sensor_type;location;lat;lon;timestamp;P1;durP1;ratioP1;P2;durP2;ratioP2
35312;SDS011;21425;50.454;30.466;2022-12-10T00:00:39;95.63;;;31.65;;
35312;SDS011;21425;50.454;30.466;2022-12-10T00:03:04;103.20;;;33.90;;
35312;SDS011;21425;50.454;30.466;2022-12-10T00:05:32;111.72;;;36.75;;
35312;SDS011;21425;50.454;30.466;2022-12-10T00:07:59;101.75;;;33.50;;
35312;SDS011;21425;50.454;30.466;2022-12-10T00:10:24;100.88;;;29.92;;
35312;SDS011;21425;50.454;30.466;2022-12-10T00:12:50;89.68;;;28.80;;
35312;SDS011;21425;50.454;30.466;2022-12-10T00:15:16;88.88;;;28.73;;
35312;SDS011;21425;50.454;30.466;2022-12-10T00:17:41;96.13;;;30.20;;
35312;SDS011;21425;50.454;30.466;2022-12-10T00:20:07;87.00;;;30.13;;
35312;SDS011;21425;50.454;30.466;2022-12-10T00:22:33;93.15;;;29.45;;
35312;SDS011;21425;50.454;30.466;2022-12-10T00:24:59;101.30;;;31.33;;
35312;SDS011;21425;50.454;30.466;2022-12-10T00:27:25;79.88;;;29.23;;
35312;SDS011;21425;50.454;30.466;2022-12-10T00:29:50;93.55;;;28.92;;
35312;SDS011;21425;50.454;30.466;2022-12-10T00:32:16;136.27;;;32.85;;
35312;SDS011;21425;50.454;30.466;2022-12-10T00:34:41;101.90;;;31.00;;
35312;SDS011;21425;50.454;30.466;2022-12-10T00:37:07;119.78;;;32.50;;
35312;SDS011;21425;50.454;30.466;2022-12-10T00:39:32;178.55;;;36.08;;
35312;SDS011;21425;50.454;30.466;2022-12-10T00:41:58;401.25;;;55.00;;
35312;SDS011;21425;50.454;30.466;2022-12-10T00:44:23;452.25;;;54.38;;
35312;SDS011;21425;50.454;30.466;2022-12-10T00:46:49;563.20;;;75.55;;
35312;SDS011;21425;50.454;30.466;2022-12-10T00:49:15;384.70;;;52.45;;
35312;SDS011;21425;50.454;30.466;2022-12-10T00:51:40;662.33;;;80.45;;
35312;SDS011;21425;50.454;30.466;2022-12-10T00:54:06;612.80;;;75.55;;
35312;SDS011;21425;50.454;30.466;2022-12-10T00:56:33;359.40;;;49.80;;
35312;SDS011;21425;50.454;30.466;2022-12-10T00:58:59;273.33;;;40.67;;
35312;SDS011;21425;50.454;30.466;2022-12-10T01:01:35;417.98;;;58.10;;
35312;SDS011;21425;50.454;30.466;2022-12-10T04:44:04;968.90;;;123.05;;
35312;SDS011;21425;50.454;30.466;2022-12-10T04:46:30;1595.72;;;209.50;;
35312;SDS011;21425;50.454;30.466;2022-12-10T04:48:55;922.35;;;107.30;;
35312;SDS011;21425;50.454;30.466;2022-12-10T04:51:21;1095.10;;;124.78;;
35312;SDS011;21425;50.454;30.466;2022-12-10T04:53:47;1069.15;;;122.22;;
35312;SDS011;21425;50.454;30.466;2022-12-10T04:56:12;1124.28;;;126.88;;
35312;SDS011;21425;50.454;30.466;2022-12-10T04:58:38;1382.45;;;168.30;;
35312;SDS011;21425;50.454;30.466;2022-12-10T05:01:04;1780.90;;;218.00;;
35312;SDS011;21425;50.454;30.466;2022-12-10T05:03:32;1300.47;;;168.20;;
35312;SDS011;21425;50.454;30.466;2022-12-10T05:06:01;1471.35;;;190.07;;
35312;SDS011;21425;50.454;30.466;2022-12-10T05:08:28;1193.85;;;146.30;;
35312;SDS011;21425;50.454;30.466;2022-12-10T05:10:54;1068.80;;;118.85;;
35312;SDS011;21425;50.454;30.466;2022-12-10T05:13:20;995.08;;;114.88;;
35312;SDS011;21425;50.454;30.466;2022-12-10T05:15:45;891.92;;;107.82;;
35312;SDS011;21425;50.454;30.466;2022-12-10T05:18:11;1561.68;;;195.80;;
35312;SDS011;21425;50.454;30.466;2022-12-10T05:20:36;1218.72;;;144.73;;
35312;SDS011;21425;50.454;30.466;2022-12-10T05:23:02;385.05;;;46.95;;
35312;SDS011;21425;50.454;30.466;2022-12-10T05:25:46;976.88;;;104.07;;
35312;SDS011;21425;50.454;30.466;2022-12-10T05:28:21;1083.40;;;127.97;;
35312;SDS011;21425;50.454;30.466;2022-12-10T05:30:47;1278.72;;;148.73;;
35312;SDS011;21425;50.454;30.466;2022-12-10T05:33:12;903.33;;;117.40;;
35312;SDS011;21425;50.454;30.466;2022-12-10T05:35:38;356.85;;;42.70;;
35312;SDS011;21425;50.454;30.466;2022-12-10T05:38:04;624.70;;;77.63;;
35312;SDS011;21425;50.454;30.466;2022-12-10T05:40:33;561.10;;;65.07;;
35312;SDS011;21425;50.454;30.466;2022-12-10T05:43:02;667.63;;;81.28;;
35312;SDS011;21425;50.454;30.466;2022-12-10T05:45:28;245.63;;;34.58;;
35312;SDS011;21425;50.454;30.466;2022-12-10T05:47:56;101.95;;;26.15;;
35312;SDS011;21425;50.454;30.466;2022-12-10T05:50:21;97.45;;;25.38;;
35312;SDS011;21425;50.454;30.466;2022-12-10T05:52:47;183.77;;;31.85;;
35312;SDS011;21425;50.454;30.466;2022-12-10T05:55:15;307.73;;;40.47;;
35312;SDS011;21425;50.454;30.466;2022-12-10T05:57:41;614.95;;;79.35;;
35312;SDS011;21425;50.454;30.466;2022-12-10T06:00:07;430.38;;;55.35;;
35312;SDS011;21425;50.454;30.466;2022-12-10T06:02:33;355.17;;;45.88;;
35312;SDS011;21425;50.454;30.466;2022-12-10T06:04:58;827.95;;;96.72;;
35312;SDS011;21425;50.454;30.466;2022-12-10T06:07:24;312.58;;;43.38;;
35312;SDS011;21425;50.454;30.466;2022-12-10T06:09:50;501.08;;;60.13;;
35312;SDS011;21425;50.454;30.466;2022-12-10T06:12:15;99.72;;;25.02;;
35312;SDS011;21425;50.454;30.466;2022-12-10T06:14:41;134.30;;;27.73;;
35312;SDS011;21425;50.454;30.466;2022-12-10T06:17:07;89.82;;;25.63;;
35312;SDS011;21425;50.454;30.466;2022-12-10T06:19:32;228.57;;;34.92;;
35312;SDS011;21425;50.454;30.466;2022-12-10T06:21:58;91.28;;;26.77;;
35312;SDS011;21425;50.454;30.466;2022-12-10T06:24:24;67.72;;;23.88;;
35312;SDS011;21425;50.454;30.466;2022-12-10T06:26:50;80.13;;;25.67;;
35312;SDS011;21425;50.454;30.466;2022-12-10T06:29:16;72.60;;;22.33;;
35312;SDS011;21425;50.454;30.466;2022-12-10T06:31:42;74.15;;;24.95;;
35312;SDS011;21425;50.454;30.466;2022-12-10T06:34:08;73.20;;;24.55;;
35312;SDS011;21425;50.454;30.466;2022-12-10T06:36:34;74.20;;;24.92;;
35312;SDS011;21425;50.454;30.466;2022-12-10T06:38:59;70.43;;;23.13;;
35312;SDS011;21425;50.454;30.466;2022-12-10T06:41:25;67.95;;;22.88;;
35312;SDS011;21425;50.454;30.466;2022-12-10T06:43:50;73.88;;;25.20;;
35312;SDS011;21425;50.454;30.466;2022-12-10T06:46:17;61.75;;;21.65;;
35312;SDS011;21425;50.454;30.466;2022-12-10T06:48:44;70.40;;;21.05;;
35312;SDS011;21425;50.454;30.466;2022-12-10T06:51:11;65.70;;;22.27;;
35312;SDS011;21425;50.454;30.466;2022-12-10T06:53:37;65.45;;;22.30;;
35312;SDS011;21425;50.454;30.466;2022-12-10T06:56:04;71.60;;;23.65;;
35312;SDS011;21425;50.454;30.466;2022-12-10T06:58:31;60.70;;;20.38;;
35312;SDS011;21425;50.454;30.466;2022-12-10T07:01:11;59.65;;;21.10;;
35312;SDS011;21425;50.454;30.466;2022-12-10T07:03:42;65.43;;;20.42;;
35312;SDS011;21425;50.454;30.466;2022-12-10T07:06:08;65.45;;;21.33;;
35312;SDS011;21425;50.454;30.466;2022-12-10T07:08:36;56.75;;;19.58;;
35312;SDS011;21425;50.454;30.466;2022-12-10T07:11:06;82.18;;;26.30;;
35312;SDS011;21425;50.454;30.466;2022-12-10T07:13:33;66.28;;;25.20;;
35312;SDS011;21425;50.454;30.466;2022-12-10T07:15:59;72.72;;;25.88;;
35312;SDS011;21425;50.454;30.466;2022-12-10T07:18:24;68.53;;;25.08;;
35312;SDS011;21425;50.454;30.466;2022-12-10T07:20:50;69.53;;;24.02;;
35312;SDS011;21425;50.454;30.466;2022-12-10T07:23:16;73.65;;;24.27;;
35312;SDS011;21425;50.454;30.466;2022-12-10T07:25:42;66.47;;;22.45;;
35312;SDS011;21425;50.454;30.466;2022-12-10T07:28:07;65.93;;;21.60;;
35312;SDS011;21425;50.454;30.466;2022-12-10T07:30:33;85.75;;;26.10;;
35312;SDS011;21425;50.454;30.466;2022-12-10T07:32:58;61.92;;;22.30;;
35312;SDS011;21425;50.454;30.466;2022-12-10T07:35:24;69.68;;;22.40;;
35312;SDS011;21425;50.454;30.466;2022-12-10T07:37:50;65.63;;;23.73;;
35312;SDS011;21425;50.454;30.466;2022-12-10T07:40:15;55.60;;;20.05;;
35312;SDS011;21425;50.454;30.466;2022-12-10T07:42:41;58.92;;;21.35;;
35312;SDS011;21425;50.454;30.466;2022-12-10T07:45:07;74.47;;;25.10;;
35312;SDS011;21425;50.454;30.466;2022-12-10T07:47:37;71.68;;;25.00;;
35312;SDS011;21425;50.454;30.466;2022-12-10T07:50:04;78.32;;;26.10;;
35312;SDS011;21425;50.454;30.466;2022-12-10T07:52:30;84.18;;;26.63;;
35312;SDS011;21425;50.454;30.466;2022-12-10T07:54:56;83.30;;;27.75;;
35312;SDS011;21425;50.454;30.466;2022-12-10T07:57:21;68.60;;;24.00;;
35312;SDS011;21425;50.454;30.466;2022-12-10T07:59:47;73.03;;;24.45;;
35312;SDS011;21425;50.454;30.466;2022-12-10T08:02:13;67.95;;;23.80;;
35312;SDS011;21425;50.454;30.466;2022-12-10T08:04:38;61.15;;;21.60;;
35312;SDS011;21425;50.454;30.466;2022-12-10T08:07:04;69.10;;;23.10;;
35312;SDS011;21425;50.454;30.466;2022-12-10T08:09:29;56.03;;;21.58;;
35312;SDS011;21425;50.454;30.466;2022-12-10T08:11:55;68.78;;;22.50;;
35312;SDS011;21425;50.454;30.466;2022-12-10T08:14:21;75.93;;;26.60;;
35312;SDS011;21425;50.454;30.466;2022-12-10T08:16:47;78.70;;;26.10;;
35312;SDS011;21425;50.454;30.466;2022-12-10T08:19:12;91.22;;;29.17;;
35312;SDS011;21425;50.454;30.466;2022-12-10T08:21:38;76.43;;;24.75;;
35312;SDS011;21425;50.454;30.466;2022-12-10T08:24:03;93.15;;;27.73;;
35312;SDS011;21425;50.454;30.466;2022-12-10T08:26:31;83.78;;;29.90;;
35312;SDS011;21425;50.454;30.466;2022-12-10T08:28:58;83.85;;;32.92;;
35312;SDS011;21425;50.454;30.466;2022-12-10T08:31:24;103.10;;;32.53;;
35312;SDS011;21425;50.454;30.466;2022-12-10T08:33:51;96.38;;;34.38;;
35312;SDS011;21425;50.454;30.466;2022-12-10T08:36:17;100.82;;;33.50;;
35312;SDS011;21425;50.454;30.466;2022-12-10T08:38:44;88.63;;;31.10;;
35312;SDS011;21425;50.454;30.466;2022-12-10T08:41:17;95.60;;;32.72;;
35312;SDS011;21425;50.454;30.466;2022-12-10T08:43:44;106.93;;;31.30;;
35312;SDS011;21425;50.454;30.466;2022-12-10T08:46:11;104.95;;;34.10;;
35312;SDS011;21425;50.454;30.466;2022-12-10T08:48:38;77.50;;;26.42;;
35312;SDS011;21425;50.454;30.466;2022-12-10T08:51:04;67.63;;;23.75;;
35312;SDS011;21425;50.454;30.466;2022-12-10T08:53:31;77.35;;;27.70;;
35312;SDS011;21425;50.454;30.466;2022-12-10T08:55:57;70.22;;;25.85;;
35312;SDS011;21425;50.454;30.466;2022-12-10T08:58:22;68.68;;;26.67;;
35312;SDS011;21425;50.454;30.466;2022-12-10T09:00:49;73.38;;;27.95;;
35312;SDS011;21425;50.454;30.466;2022-12-10T09:03:15;73.05;;;26.52;;
35312;SDS011;21425;50.454;30.466;2022-12-10T09:05:41;62.58;;;22.85;;
35312;SDS011;21425;50.454;30.466;2022-12-10T09:08:07;59.35;;;22.35;;
35312;SDS011;21425;50.454;30.466;2022-12-10T09:10:34;81.25;;;23.60;;
35312;SDS011;21425;50.454;30.466;2022-12-10T09:13:01;59.40;;;21.38;;
35312;SDS011;21425;50.454;30.466;2022-12-10T09:15:27;87.45;;;25.00;;
35312;SDS011;21425;50.454;30.466;2022-12-10T09:17:52;57.33;;;21.42;;
35312;SDS011;21425;50.454;30.466;2022-12-10T09:20:18;117.38;;;27.70;;
35312;SDS011;21425;50.454;30.466;2022-12-10T09:22:43;79.70;;;22.60;;
35312;SDS011;21425;50.454;30.466;2022-12-10T09:25:09;245.70;;;41.67;;
35312;SDS011;21425;50.454;30.466;2022-12-10T09:27:35;182.38;;;31.67;;
35312;SDS011;21425;50.454;30.466;2022-12-10T09:30:02;213.35;;;36.90;;
35312;SDS011;21425;50.454;30.466;2022-12-10T09:32:29;250.65;;;39.08;;
35312;SDS011;21425;50.454;30.466;2022-12-10T09:34:55;296.60;;;44.65;;
35312;SDS011;21425;50.454;30.466;2022-12-10T09:37:20;372.38;;;50.92;;
35312;SDS011;21425;50.454;30.466;2022-12-10T09:39:46;310.35;;;46.13;;
35312;SDS011;21425;50.454;30.466;2022-12-10T09:47:36;138.05;;;31.85;;
35312;SDS011;21425;50.454;30.466;2022-12-10T09:52:42;109.28;;;28.50;;
35312;SDS011;21425;50.454;30.466;2022-12-10T09:55:12;308.77;;;46.92;;
35312;SDS011;21425;50.454;30.466;2022-12-10T09:57:52;106.78;;;26.70;;
35312;SDS011;21425;50.454;30.466;2022-12-10T10:00:20;146.88;;;29.08;;
35312;SDS011;21425;50.454;30.466;2022-12-10T10:03:03;125.75;;;30.05;;
35312;SDS011;21425;50.454;30.466;2022-12-10T10:05:32;98.68;;;24.85;;
35312;SDS011;21425;50.454;30.466;2022-12-10T10:10:50;193.43;;;34.20;;
35312;SDS011;21425;50.454;30.466;2022-12-10T10:16:11;170.73;;;34.88;;
35312;SDS011;21425;50.454;30.466;2022-12-10T10:18:39;474.77;;;68.50;;
35312;SDS011;21425;50.454;30.466;2022-12-10T10:21:13;351.17;;;47.08;;
35312;SDS011;21425;50.454;30.466;2022-12-10T10:23:46;386.10;;;56.75;;
35312;SDS011;21425;50.454;30.466;2022-12-10T10:26:12;131.35;;;29.35;;
35312;SDS011;21425;50.454;30.466;2022-12-10T10:28:38;458.25;;;61.15;;
35312;SDS011;21425;50.454;30.466;2022-12-10T10:31:17;450.52;;;63.75;;
35312;SDS011;21425;50.454;30.466;2022-12-10T10:33:49;429.85;;;56.90;;
35312;SDS011;21425;50.454;30.466;2022-12-10T10:36:22;333.55;;;47.45;;
35312;SDS011;21425;50.454;30.466;2022-12-10T10:38:49;255.85;;;41.35;;
35312;SDS011;21425;50.454;30.466;2022-12-10T10:41:15;597.90;;;77.13;;
35312;SDS011;21425;50.454;30.466;2022-12-10T10:43:41;574.05;;;68.93;;
35312;SDS011;21425;50.454;30.466;2022-12-10T10:46:16;255.00;;;34.38;;
35312;SDS011;21425;50.454;30.466;2022-12-10T10:48:46;548.75;;;68.50;;
35312;SDS011;21425;50.454;30.466;2022-12-10T10:58:36;502.30;;;69.75;;
35312;SDS011;21425;50.454;30.466;2022-12-10T11:01:49;316.60;;;48.75;;
35312;SDS011;21425;50.454;30.466;2022-12-10T11:04:16;585.03;;;77.60;;
35312;SDS011;21425;50.454;30.466;2022-12-10T11:06:46;613.78;;;78.82;;
35312;SDS011;21425;50.454;30.466;2022-12-10T11:09:23;264.13;;;45.58;;
35312;SDS011;21425;50.454;30.466;2022-12-10T11:11:58;444.63;;;60.22;;
35312;SDS011;21425;50.454;30.466;2022-12-10T11:14:32;538.08;;;69.63;;
35312;SDS011;21425;50.454;30.466;2022-12-10T15:06:27;466.67;;;61.35;;
35312;SDS011;21425;50.454;30.466;2022-12-10T15:08:58;369.85;;;53.47;;
35312;SDS011;21425;50.454;30.466;2022-12-10T15:11:24;157.80;;;38.92;;
35312;SDS011;21425;50.454;30.466;2022-12-10T15:13:53;962.65;;;125.03;;
35312;SDS011;21425;50.454;30.466;2022-12-10T15:16:38;445.70;;;68.80;;
35312;SDS011;21425;50.454;30.466;2022-12-10T15:19:19;586.17;;;75.25;;
35312;SDS011;21425;50.454;30.466;2022-12-10T15:22:00;452.05;;;63.05;;
35312;SDS011;21425;50.454;30.466;2022-12-10T15:24:42;511.92;;;69.65;;
35312;SDS011;21425;50.454;30.466;2022-12-10T15:27:15;609.67;;;81.95;;
35312;SDS011;21425;50.454;30.466;2022-12-10T15:29:42;244.88;;;47.33;;
35312;SDS011;21425;50.454;30.466;2022-12-10T15:32:12;577.08;;;87.25;;
35312;SDS011;21425;50.454;30.466;2022-12-10T15:34:43;282.95;;;58.92;;
35312;SDS011;21425;50.454;30.466;2022-12-10T15:37:19;285.67;;;53.72;;
35312;SDS011;21425;50.454;30.466;2022-12-10T15:39:59;355.17;;;72.00;;
35312;SDS011;21425;50.454;30.466;2022-12-10T15:42:38;576.67;;;85.28;;
35312;SDS011;21425;50.454;30.466;2022-12-10T15:45:25;545.05;;;89.72;;
35312;SDS011;21425;50.454;30.466;2022-12-10T15:47:53;336.60;;;55.55;;
35312;SDS011;21425;50.454;30.466;2022-12-10T15:50:23;364.38;;;67.07;;
35312;SDS011;21425;50.454;30.466;2022-12-10T15:52:51;472.10;;;72.85;;
35312;SDS011;21425;50.454;30.466;2022-12-10T15:55:18;499.08;;;83.63;;
35312;SDS011;21425;50.454;30.466;2022-12-10T15:57:43;492.70;;;85.18;;
35312;SDS011;21425;50.454;30.466;2022-12-10T16:02:54;338.85;;;63.38;;
35312;SDS011;21425;50.454;30.466;2022-12-10T16:08:00;317.48;;;62.00;;
35312;SDS011;21425;50.454;30.466;2022-12-10T16:10:36;364.85;;;64.45;;
35312;SDS011;21425;50.454;30.466;2022-12-10T16:13:03;653.97;;;99.25;;
35312;SDS011;21425;50.454;30.466;2022-12-10T16:15:33;534.15;;;89.43;;
35312;SDS011;21425;50.454;30.466;2022-12-10T16:18:08;476.00;;;71.93;;
35312;SDS011;21425;50.454;30.466;2022-12-10T16:20:35;346.23;;;69.68;;
35312;SDS011;21425;50.454;30.466;2022-12-10T16:23:02;689.53;;;109.55;;
35312;SDS011;21425;50.454;30.466;2022-12-10T16:25:29;375.35;;;69.05;;
35312;SDS011;21425;50.454;30.466;2022-12-10T16:27:55;377.35;;;66.50;;
35312;SDS011;21425;50.454;30.466;2022-12-10T16:32:57;754.17;;;124.25;;
35312;SDS011;21425;50.454;30.466;2022-12-10T16:35:23;1071.38;;;178.40;;
35312;SDS011;21425;50.454;30.466;2022-12-10T16:37:49;677.17;;;128.48;;
35312;SDS011;21425;50.454;30.466;2022-12-10T16:40:19;693.85;;;120.40;;
35312;SDS011;21425;50.454;30.466;2022-12-10T16:42:49;237.70;;;74.22;;
35312;SDS011;21425;50.454;30.466;2022-12-10T16:47:47;623.53;;;107.25;;
35312;SDS011;21425;50.454;30.466;2022-12-10T16:50:14;592.15;;;108.63;;
35312;SDS011;21425;50.454;30.466;2022-12-10T16:52:41;458.20;;;99.05;;
35312;SDS011;21425;50.454;30.466;2022-12-10T16:55:11;292.83;;;86.03;;
35312;SDS011;21425;50.454;30.466;2022-12-10T16:57:38;693.00;;;116.88;;
35312;SDS011;21425;50.454;30.466;2022-12-10T17:00:09;209.80;;;71.13;;
35312;SDS011;21425;50.454;30.466;2022-12-10T17:02:36;642.90;;;122.72;;
35312;SDS011;21425;50.454;30.466;2022-12-10T17:05:01;605.78;;;114.97;;
35312;SDS011;21425;50.454;30.466;2022-12-10T17:07:27;711.60;;;132.95;;
35312;SDS011;21425;50.454;30.466;2022-12-10T17:09:53;865.28;;;148.38;;
35312;SDS011;21425;50.454;30.466;2022-12-10T17:12:19;869.47;;;150.52;;
35312;SDS011;21425;50.454;30.466;2022-12-10T17:14:44;681.65;;;122.70;;
35312;SDS011;21425;50.454;30.466;2022-12-10T17:17:12;312.27;;;69.40;;
35312;SDS011;21425;50.454;30.466;2022-12-10T17:19:39;194.57;;;40.17;;
35312;SDS011;21425;50.454;30.466;2022-12-10T17:22:05;151.48;;;41.75;;
35312;SDS011;21425;50.454;30.466;2022-12-10T17:24:31;423.15;;;65.15;;
35312;SDS011;21425;50.454;30.466;2022-12-10T17:27:05;218.73;;;46.83;;
35312;SDS011;21425;50.454;30.466;2022-12-10T17:29:33;326.52;;;59.28;;
35312;SDS011;21425;50.454;30.466;2022-12-10T17:32:02;463.15;;;73.18;;
35312;SDS011;21425;50.454;30.466;2022-12-10T17:34:29;149.73;;;38.40;;
35312;SDS011;21425;50.454;30.466;2022-12-10T17:36:54;368.38;;;61.70;;
35312;SDS011;21425;50.454;30.466;2022-12-10T17:39:21;214.43;;;45.85;;
35312;SDS011;21425;50.454;30.466;2022-12-10T17:41:50;255.77;;;49.63;;
35312;SDS011;21425;50.454;30.466;2022-12-10T17:44:16;433.48;;;70.80;;
35312;SDS011;21425;50.454;30.466;2022-12-10T17:46:42;252.48;;;50.53;;
35312;SDS011;21425;50.454;30.466;2022-12-10T17:49:09;555.78;;;85.78;;
35312;SDS011;21425;50.454;30.466;2022-12-10T17:51:37;298.67;;;54.83;;
35312;SDS011;21425;50.454;30.466;2022-12-10T17:54:03;107.88;;;31.95;;
35312;SDS011;21425;50.454;30.466;2022-12-10T17:56:29;123.57;;;32.95;;
35312;SDS011;21425;50.454;30.466;2022-12-10T17:58:55;294.15;;;49.72;;
35312;SDS011;21425;50.454;30.466;2022-12-10T18:01:20;112.70;;;30.95;;
35312;SDS011;21425;50.454;30.466;2022-12-10T18:03:47;107.47;;;33.28;;
35312;SDS011;21425;50.454;30.466;2022-12-10T18:06:23;124.28;;;34.80;;
35312;SDS011;21425;50.454;30.466;2022-12-10T18:08:51;150.70;;;37.42;;
35312;SDS011;21425;50.454;30.466;2022-12-10T18:11:22;125.85;;;38.13;;
35312;SDS011;21425;50.454;30.466;2022-12-10T18:13:50;188.10;;;44.47;;
35312;SDS011;21425;50.454;30.466;2022-12-10T18:16:17;129.93;;;37.95;;
35312;SDS011;21425;50.454;30.466;2022-12-10T18:18:52;155.57;;;40.78;;
35312;SDS011;21425;50.454;30.466;2022-12-10T18:21:18;213.02;;;46.42;;
35312;SDS011;21425;50.454;30.466;2022-12-10T18:23:44;177.88;;;42.10;;
35312;SDS011;21425;50.454;30.466;2022-12-10T18:26:14;151.13;;;39.55;;
35312;SDS011;21425;50.454;30.466;2022-12-10T18:28:46;170.02;;;39.60;;
35312;SDS011;21425;50.454;30.466;2022-12-10T18:31:16;183.05;;;44.60;;
35312;SDS011;21425;50.454;30.466;2022-12-10T18:33:51;92.20;;;31.45;;
35312;SDS011;21425;50.454;30.466;2022-12-10T18:36:20;416.17;;;66.60;;
35312;SDS011;21425;50.454;30.466;2022-12-10T18:38:48;106.20;;;33.22;;
35312;SDS011;21425;50.454;30.466;2022-12-10T18:41:15;165.85;;;40.85;;
35312;SDS011;21425;50.454;30.466;2022-12-10T18:43:41;109.38;;;33.35;;
35312;SDS011;21425;50.454;30.466;2022-12-10T18:46:11;104.57;;;32.15;;
35312;SDS011;21425;50.454;30.466;2022-12-10T18:48:38;91.35;;;32.85;;
35312;SDS011;21425;50.454;30.466;2022-12-10T18:51:03;154.50;;;38.25;;
35312;SDS011;21425;50.454;30.466;2022-12-10T18:53:29;83.75;;;31.10;;
35312;SDS011;21425;50.454;30.466;2022-12-10T18:55:55;80.20;;;30.77;;
35312;SDS011;21425;50.454;30.466;2022-12-10T18:58:21;96.30;;;30.30;;
35312;SDS011;21425;50.454;30.466;2022-12-10T19:00:47;155.45;;;34.65;;
35312;SDS011;21425;50.454;30.466;2022-12-10T19:03:13;108.30;;;31.35;;
35312;SDS011;21425;50.454;30.466;2022-12-10T19:05:38;109.25;;;31.73;;
35312;SDS011;21425;50.454;30.466;2022-12-10T19:08:04;156.18;;;34.92;;
35312;SDS011;21425;50.454;30.466;2022-12-10T19:10:30;67.13;;;24.98;;
35312;SDS011;21425;50.454;30.466;2022-12-10T19:12:56;67.82;;;23.90;;
35312;SDS011;21425;50.454;30.466;2022-12-10T19:15:22;89.45;;;27.00;;
35312;SDS011;21425;50.454;30.466;2022-12-10T19:17:48;79.15;;;25.35;;
35312;SDS011;21425;50.454;30.466;2022-12-10T19:20:15;103.25;;;27.30;;
35312;SDS011;21425;50.454;30.466;2022-12-10T19:22:44;79.57;;;22.00;;
35312;SDS011;21425;50.454;30.466;2022-12-10T19:25:10;193.60;;;39.33;;
35312;SDS011;21425;50.454;30.466;2022-12-10T19:27:36;130.52;;;32.05;;
35312;SDS011;21425;50.454;30.466;2022-12-10T19:30:03;274.85;;;42.47;;
35312;SDS011;21425;50.454;30.466;2022-12-10T19:32:49;104.88;;;33.65;;
35312;SDS011;21425;50.454;30.466;2022-12-10T19:35:16;187.98;;;40.53;;
35312;SDS011;21425;50.454;30.466;2022-12-10T19:37:44;132.27;;;38.58;;
35312;SDS011;21425;50.454;30.466;2022-12-10T19:40:23;186.55;;;43.08;;
35312;SDS011;21425;50.454;30.466;2022-12-10T19:42:51;267.38;;;49.92;;
35312;SDS011;21425;50.454;30.466;2022-12-10T19:45:16;253.80;;;51.35;;
35312;SDS011;21425;50.454;30.466;2022-12-10T19:47:43;239.95;;;50.58;;
35312;SDS011;21425;50.454;30.466;2022-12-10T19:50:18;273.33;;;57.03;;
35312;SDS011;21425;50.454;30.466;2022-12-10T19:52:46;376.63;;;76.85;;
35312;SDS011;21425;50.454;30.466;2022-12-10T19:55:13;256.38;;;65.63;;
35312;SDS011;21425;50.454;30.466;2022-12-10T19:57:40;300.65;;;66.07;;
35312;SDS011;21425;50.454;30.466;2022-12-10T20:00:07;231.90;;;67.53;;
35312;SDS011;21425;50.454;30.466;2022-12-10T20:02:39;307.45;;;74.50;;
35312;SDS011;21425;50.454;30.466;2022-12-10T20:05:04;333.25;;;67.15;;
35312;SDS011;21425;50.454;30.466;2022-12-10T20:07:30;268.08;;;57.05;;
35312;SDS011;21425;50.454;30.466;2022-12-10T20:09:57;174.60;;;48.13;;
35312;SDS011;21425;50.454;30.466;2022-12-10T20:12:22;116.82;;;43.45;;
35312;SDS011;21425;50.454;30.466;2022-12-10T20:14:48;559.08;;;88.65;;
35312;SDS011;21425;50.454;30.466;2022-12-10T20:17:15;331.98;;;59.90;;
35312;SDS011;21425;50.454;30.466;2022-12-10T20:19:46;177.98;;;49.58;;
35312;SDS011;21425;50.454;30.466;2022-12-10T20:22:11;495.20;;;89.70;;
35312;SDS011;21425;50.454;30.466;2022-12-10T20:24:37;174.73;;;60.40;;
35312;SDS011;21425;50.454;30.466;2022-12-10T20:27:02;265.48;;;62.90;;
35312;SDS011;21425;50.454;30.466;2022-12-10T20:29:29;502.38;;;92.43;;
35312;SDS011;21425;50.454;30.466;2022-12-10T20:31:55;262.10;;;57.78;;
35312;SDS011;21425;50.454;30.466;2022-12-10T20:34:21;289.65;;;63.38;;
35312;SDS011;21425;50.454;30.466;2022-12-10T20:36:48;397.92;;;71.20;;
35312;SDS011;21425;50.454;30.466;2022-12-10T20:39:24;248.48;;;55.60;;
35312;SDS011;21425;50.454;30.466;2022-12-10T20:41:51;220.60;;;63.75;;
35312;SDS011;21425;50.454;30.466;2022-12-10T20:44:17;250.70;;;66.68;;
35312;SDS011;21425;50.454;30.466;2022-12-10T20:46:43;270.05;;;59.15;;
35312;SDS011;21425;50.454;30.466;2022-12-10T20:49:10;358.73;;;75.95;;
35312;SDS011;21425;50.454;30.466;2022-12-10T20:51:38;201.00;;;59.63;;
35312;SDS011;21425;50.454;30.466;2022-12-10T20:54:04;247.48;;;61.50;;
35312;SDS011;21425;50.454;30.466;2022-12-10T20:56:29;495.65;;;94.50;;
35312;SDS011;21425;50.454;30.466;2022-12-10T20:58:55;360.10;;;79.63;;
35312;SDS011;21425;50.454;30.466;2022-12-10T21:01:21;452.77;;;91.45;;
35312;SDS011;21425;50.454;30.466;2022-12-10T21:03:47;628.17;;;130.32;;
35312;SDS011;21425;50.454;30.466;2022-12-10T21:06:13;636.50;;;156.75;;
35312;SDS011;21425;50.454;30.466;2022-12-10T21:08:42;482.15;;;132.10;;
35312;SDS011;21425;50.454;30.466;2022-12-10T21:11:08;435.55;;;119.03;;
35312;SDS011;21425;50.454;30.466;2022-12-10T21:13:34;411.27;;;110.68;;
35312;SDS011;21425;50.454;30.466;2022-12-10T21:16:00;539.05;;;140.25;;
35312;SDS011;21425;50.454;30.466;2022-12-10T21:18:27;325.63;;;93.15;;
35312;SDS011;21425;50.454;30.466;2022-12-10T21:20:53;421.52;;;118.35;;
35312;SDS011;21425;50.454;30.466;2022-12-10T21:23:21;417.80;;;121.15;;
35312;SDS011;21425;50.454;30.466;2022-12-10T21:25:49;340.67;;;104.95;;
35312;SDS011;21425;50.454;30.466;2022-12-10T21:28:16;464.52;;;122.28;;
35312;SDS011;21425;50.454;30.466;2022-12-10T21:30:42;279.52;;;88.95;;
35312;SDS011;21425;50.454;30.466;2022-12-10T21:33:12;555.40;;;128.23;;
35312;SDS011;21425;50.454;30.466;2022-12-10T21:35:42;621.55;;;152.88;;
35312;SDS011;21425;50.454;30.466;2022-12-10T21:38:08;721.95;;;161.13;;
35312;SDS011;21425;50.454;30.466;2022-12-10T21:40:34;573.05;;;176.35;;
35312;SDS011;21425;50.454;30.466;2022-12-10T21:43:02;483.00;;;137.30;;
35312;SDS011;21425;50.454;30.466;2022-12-10T21:45:39;583.40;;;141.80;;
35312;SDS011;21425;50.454;30.466;2022-12-10T21:48:05;468.65;;;120.28;;
